Adak, AK

1:33 PM HADT on July 31, 2014 (GMT -0900)
Adak (PADK) Elev 13 ft | 51.88 °N, 176.65 °W | Change Station

Current weather conditions updated 17 minutes ago

Overcast
Overcast
55 °F
Feels Like 55 °F
N
14
Wind Variable Wind from East

Today is forecast to be Cooler than yesterday. Chance of showers.

Today
High -- | Low -- °F
--% Chance of Precip.
Yesterday
High -- | Low -- °F
Precip. -- in
7:07 AM 10:37 PM
Waxing Crescent, 21% visible
Pressure 30.14 in
Visibility 5.0 miles
Clouds Few 600 ft
Overcast 1300 ft
Dew Point 52 °F
Humidity 88%
Rainfall 0.00 in
Snow Depth Not available.
UV 2 out of 12
Pollen Not available.
Air Quality Not available.
Flu Activity Not available.
METAR PADK 312216Z 10012KT 5SM FEW006 OVC013 13/11 A3014 RMK AO1

More Conditions Fewer Conditions

Pressure 30.14 in
Visibility 5.0 miles
Clouds Few 600 ft
Overcast 1300 ft
Dew Point 52 °F
Humidity 88%
Rainfall 0.00 in
Snow Depth Not available.
UV 2 out of 12
Pollen Not available.
Air Quality Not available.
Flu Activity Not available.
METAR PADK 312216Z 10012KT 5SM FEW006 OVC013 13/11 A3014 RMK AO1

More Conditions Fewer Conditions

10-Day Weather Forecast

Almanac

Astronomy

Jul. 31, 2014 Rise Set
Actual Time 7:07 AM HADT 10:37 PM HADT
Civil Twilight 6:26 AM HADT 11:18 PM HADT
Nautical Twilight 5:30 AM HADT 12:13 AM HADT
Astronomical Twilight 4:08 AM HADT 1:32 AM HADT
Moon 12:29 PM HADT No Moon Set
Length of Visible Light 16h 51m
Length of Day
15h 29m
Tomorrow will be 3m 12s shorter.
Waxing Crescent, 21% of the Moon is Illuminated
Today
Waxing Crescent
Aug 3
First Quarter
Aug 10
Full
Aug 17
Last Quarter
Aug 25
New

Today's Extremes

State Highs State Lows

Community

WunderPhotos

Upload Photos

1,739,473 photos uploaded!

Nearby

Snow Depth

Station Depth Elevation
Rocky Point 3 in 500 ft
Pargon Creek 0 in 300 ft
Mcneil Canyon 1 in 1320 ft
MF Bradley River 231 in 2300 ft
Cooper Lake 19 in 1200 ft

Earthquake Activity

City Distance Mag. Time & Date
No recent earthquake activity has been reported nearby.
Minimum magnitude displayed is 2.5.

Coastal Water Temperatures

Place Temperature
No Stations Reporting

Nearby Weather Stations

There are no personal weather stations in this area.